createdAt,value
2023-08-10T00:01:05.677Z,100.00
2023-08-10T00:03:35.279Z,100.00
2023-08-10T00:06:06.143Z,100.00
2023-08-10T00:08:37.297Z,100.00
2023-08-10T00:11:07.997Z,100.00
2023-08-10T00:13:37.541Z,100.00
2023-08-10T00:16:07.072Z,100.00
2023-08-10T00:18:36.631Z,100.00
2023-08-10T00:21:05.881Z,100.00
2023-08-10T00:23:36.684Z,100.00
2023-08-10T00:26:05.992Z,100.00
2023-08-10T00:28:35.487Z,100.00
2023-08-10T00:31:05.854Z,100.00
2023-08-10T00:33:35.554Z,100.00
2023-08-10T00:36:09.238Z,100.00
2023-08-10T00:38:40.880Z,100.00
2023-08-10T00:41:10.544Z,100.00
2023-08-10T00:43:39.809Z,100.00
2023-08-10T00:46:12.813Z,100.00
2023-08-10T00:48:42.751Z,100.00
2023-08-10T00:51:11.971Z,100.00
2023-08-10T00:53:43.717Z,100.00
2023-08-10T00:56:14.058Z,100.00
2023-08-10T00:58:44.165Z,100.00
2023-08-10T01:01:13.615Z,100.00
2023-08-10T01:03:43.406Z,100.00
2023-08-10T01:06:19.165Z,100.00
2023-08-10T01:08:59.125Z,100.00
2023-08-10T01:11:36.669Z,100.00
2023-08-10T01:14:13.649Z,100.00
2023-08-10T01:16:44.764Z,100.00
2023-08-10T01:19:25.892Z,100.00
2023-08-10T01:22:05.282Z,100.00
2023-08-10T01:24:46.171Z,100.00
2023-08-10T01:27:18.470Z,100.00
2023-08-10T01:29:48.166Z,100.00
2023-08-10T01:32:17.998Z,100.00
2023-08-10T01:34:47.261Z,100.00
2023-08-10T01:37:16.605Z,100.00
2023-08-10T01:39:45.846Z,100.00
2023-08-10T01:42:17.343Z,100.00
2023-08-10T01:44:46.698Z,100.00
2023-08-10T01:47:20.549Z,100.00
2023-08-10T01:49:55.764Z,100.00
2023-08-10T01:52:31.130Z,100.00
2023-08-10T01:55:02.769Z,100.00
2023-08-10T01:57:33.733Z,100.00
2023-08-10T02:00:03.172Z,100.00
2023-08-10T02:02:45.854Z,100.00
2023-08-10T02:05:16.669Z,100.00
2023-08-10T02:07:50.293Z,100.00
2023-08-10T02:10:20.223Z,100.00
2023-08-10T02:12:51.182Z,100.00
2023-08-10T02:15:21.812Z,100.00
2023-08-10T02:17:51.200Z,100.00
2023-08-10T02:20:20.590Z,100.00
2023-08-10T02:22:53.418Z,100.00
2023-08-10T02:25:23.774Z,100.00
2023-08-10T02:27:54.845Z,100.00
2023-08-10T02:30:24.612Z,100.00
2023-08-10T02:32:53.913Z,100.00
2023-08-10T02:35:25.844Z,100.00
2023-08-10T02:37:55.067Z,100.00
2023-08-10T02:40:24.534Z,100.00
2023-08-10T02:42:56.376Z,100.00
2023-08-10T02:45:25.576Z,100.00
2023-08-10T02:47:54.897Z,100.00
2023-08-10T02:50:24.175Z,100.00
2023-08-10T02:52:53.957Z,100.00
2023-08-10T02:55:23.135Z,100.00
2023-08-10T02:57:52.397Z,100.00
2023-08-10T03:00:23.573Z,100.00
2023-08-10T03:02:52.824Z,100.00
2023-08-10T03:05:23.161Z,100.00
2023-08-10T03:07:52.884Z,100.00
2023-08-10T03:10:22.690Z,100.00
2023-08-10T03:12:52.536Z,100.00
2023-08-10T03:15:23.839Z,100.00
2023-08-10T03:17:53.186Z,100.00
2023-08-10T03:20:23.421Z,100.00
2023-08-10T03:22:52.457Z,100.00
2023-08-10T03:25:21.869Z,100.00
2023-08-10T03:27:51.108Z,100.00
2023-08-10T03:30:24.772Z,100.00
2023-08-10T03:32:54.041Z,100.00
2023-08-10T03:35:23.748Z,100.00
2023-08-10T03:37:52.946Z,100.00
2023-08-10T03:40:22.741Z,100.00
2023-08-10T03:42:52.029Z,100.00
2023-08-10T03:45:21.742Z,100.00
2023-08-10T03:47:52.323Z,100.00
2023-08-10T03:50:21.743Z,100.00
2023-08-10T03:52:51.274Z,100.00
2023-08-10T03:55:21.487Z,100.00
2023-08-10T03:57:51.175Z,100.00
2023-08-10T04:00:22.028Z,100.00
2023-08-10T04:02:53.189Z,100.00
2023-08-10T04:05:23.355Z,100.00
2023-08-10T04:07:53.787Z,100.00
2023-08-10T04:10:23.144Z,100.00
2023-08-10T04:12:52.571Z,100.00
2023-08-10T04:15:22.420Z,100.00
2023-08-10T04:17:53.451Z,100.00
2023-08-10T04:20:23.394Z,100.00
2023-08-10T04:22:54.056Z,100.00
2023-08-10T04:25:23.938Z,100.00
2023-08-10T04:27:53.740Z,100.00
2023-08-10T04:30:24.085Z,100.00
2023-08-10T04:32:54.883Z,100.00
2023-08-10T04:35:24.154Z,100.00
2023-08-10T04:37:54.924Z,100.00
2023-08-10T04:40:24.612Z,100.00
2023-08-10T04:42:54.113Z,100.00
2023-08-10T04:45:23.639Z,100.00
2023-08-10T04:47:53.060Z,100.00
2023-08-10T04:50:23.960Z,100.00
2023-08-10T04:52:53.410Z,100.00
2023-08-10T04:55:22.831Z,100.00
2023-08-10T04:57:53.421Z,100.00
2023-08-10T05:00:24.530Z,100.00
2023-08-10T05:02:54.520Z,100.00
2023-08-10T05:05:26.425Z,100.00
2023-08-10T05:07:56.139Z,100.00
2023-08-10T05:10:25.539Z,100.00
2023-08-10T05:12:54.816Z,100.00
2023-08-10T05:15:24.210Z,100.00
2023-08-10T05:17:53.589Z,100.00
2023-08-10T05:20:25.934Z,100.00
2023-08-10T05:22:55.174Z,100.00
2023-08-10T05:25:24.548Z,100.00
2023-08-10T05:27:53.904Z,100.00
2023-08-10T05:30:24.168Z,100.00
2023-08-10T05:32:53.741Z,100.00
2023-08-10T05:35:25.289Z,100.00
2023-08-10T05:37:54.602Z,100.00
2023-08-10T05:40:24.897Z,100.00
2023-08-10T05:42:54.253Z,100.00
2023-08-10T05:45:23.716Z,100.00
2023-08-10T05:47:53.274Z,100.00
2023-08-10T05:50:22.597Z,100.00
2023-08-10T05:52:54.047Z,100.00
2023-08-10T05:55:23.556Z,100.00
2023-08-10T05:57:52.881Z,100.00
2023-08-10T06:00:22.813Z,100.00
2023-08-10T06:02:52.725Z,100.00
2023-08-10T06:05:22.317Z,100.00
2023-08-10T06:07:53.116Z,100.00
2023-08-10T06:10:22.399Z,100.00
2023-08-10T06:12:51.857Z,100.00
2023-08-10T06:15:21.528Z,100.00
2023-08-10T06:17:51.335Z,100.00
2023-08-10T06:20:23.297Z,100.00
2023-08-10T06:22:55.280Z,100.00
2023-08-10T06:25:25.849Z,100.00
2023-08-10T06:27:55.030Z,100.00
2023-08-10T06:30:24.318Z,100.00
2023-08-10T06:32:53.806Z,100.00
2023-08-10T06:35:23.431Z,100.00
2023-08-10T06:37:54.278Z,100.00
2023-08-10T06:40:23.524Z,100.00
2023-08-10T06:42:52.719Z,100.00
2023-08-10T06:45:30.474Z,100.00
2023-08-10T06:47:59.670Z,100.00
2023-08-10T06:50:29.106Z,100.00
2023-08-10T06:53:00.049Z,100.00
2023-08-10T06:55:31.589Z,100.00
2023-08-10T06:58:01.042Z,100.00
2023-08-10T07:00:34.368Z,100.00
2023-08-10T07:03:05.559Z,100.00
2023-08-10T07:05:40.898Z,100.00
2023-08-10T07:08:13.118Z,100.00
2023-08-10T07:10:42.480Z,100.00
2023-08-10T07:13:11.990Z,100.00
2023-08-10T07:15:45.834Z,100.00
2023-08-10T07:18:16.588Z,100.00
2023-08-10T07:20:46.208Z,100.00
2023-08-10T07:23:19.114Z,100.00
2023-08-10T07:25:55.662Z,100.00
2023-08-10T07:28:26.107Z,100.00
2023-08-10T07:30:55.458Z,100.00
2023-08-10T07:33:25.104Z,100.00
2023-08-10T07:35:55.354Z,100.00
2023-08-10T07:38:26.855Z,100.00
2023-08-10T07:40:56.301Z,100.00
2023-08-10T07:43:25.344Z,100.00
2023-08-10T07:45:59.991Z,100.00
2023-08-10T07:48:30.228Z,100.00
2023-08-10T07:51:00.381Z,100.00
2023-08-10T07:53:32.252Z,100.00
2023-08-10T07:56:02.135Z,100.00
2023-08-10T07:58:31.842Z,100.00
2023-08-10T08:01:00.930Z,100.00
2023-08-10T08:03:30.341Z,100.00
2023-08-10T08:05:59.820Z,100.00
2023-08-10T08:08:31.397Z,100.00
2023-08-10T08:11:00.944Z,100.00
2023-08-10T08:13:30.411Z,100.00
2023-08-10T08:16:00.735Z,100.00
2023-08-10T08:18:49.380Z,100.00
2023-08-10T08:21:22.855Z,100.00
2023-08-10T08:23:55.132Z,100.00
2023-08-10T08:26:27.943Z,100.00
2023-08-10T08:28:58.414Z,100.00
2023-08-10T08:31:28.344Z,100.00
2023-08-10T08:33:58.009Z,100.00
2023-08-10T08:36:30.101Z,100.00
2023-08-10T08:39:01.479Z,100.00
2023-08-10T08:41:37.752Z,100.00
2023-08-10T08:44:08.370Z,100.00
2023-08-10T08:46:42.144Z,100.00
2023-08-10T08:49:11.926Z,100.00
2023-08-10T08:51:41.745Z,100.00
2023-08-10T08:54:14.463Z,100.00
2023-08-10T08:56:44.076Z,100.00
2023-08-10T08:59:16.373Z,100.00
2023-08-10T09:01:49.778Z,100.00
2023-08-10T09:04:19.613Z,100.00
2023-08-10T09:06:49.382Z,100.00
2023-08-10T09:09:20.384Z,100.00
2023-08-10T09:11:49.571Z,100.00
2023-08-10T09:14:18.789Z,100.00
2023-08-10T09:16:48.237Z,100.00
2023-08-10T09:19:18.663Z,100.00
2023-08-10T09:21:48.560Z,100.00
2023-08-10T09:24:17.846Z,100.00
2023-08-10T09:26:48.674Z,100.00
2023-08-10T09:29:18.225Z,100.00
2023-08-10T09:31:47.583Z,100.00
2023-08-10T09:34:24.483Z,100.00
2023-08-10T09:36:57.474Z,100.00
2023-08-10T09:42:02.273Z,100.00
2023-08-10T09:44:45.270Z,100.00
2023-08-10T09:47:15.546Z,100.00
2023-08-10T09:49:57.095Z,100.00
2023-08-10T09:52:27.963Z,100.00
2023-08-10T09:54:59.446Z,100.00
2023-08-10T09:57:30.280Z,100.00
2023-08-10T09:59:59.933Z,100.00
2023-08-10T10:02:30.203Z,100.00
2023-08-10T10:04:59.999Z,100.00
2023-08-10T10:07:32.601Z,100.00
2023-08-10T10:10:03.000Z,100.00
2023-08-10T10:12:38.030Z,100.00
2023-08-10T10:15:11.406Z,100.00
2023-08-10T10:17:42.236Z,100.00
2023-08-10T10:20:13.198Z,100.00
2023-08-10T10:22:42.884Z,100.00
2023-08-10T10:25:17.989Z,100.00
2023-08-10T10:27:54.033Z,100.00
2023-08-10T10:30:26.123Z,100.00
2023-08-10T10:32:55.212Z,100.00
2023-08-10T10:35:26.057Z,100.00
2023-08-10T10:37:59.926Z,100.00
2023-08-10T10:40:30.445Z,100.00
2023-08-10T10:43:22.564Z,100.00
2023-08-10T10:45:54.259Z,100.00
2023-08-10T10:48:35.638Z,100.00
2023-08-10T10:51:06.444Z,100.00
2023-08-10T10:53:37.122Z,100.00
2023-08-10T10:56:08.886Z,100.00
2023-08-10T10:58:40.370Z,100.00
2023-08-10T11:01:09.815Z,100.00
2023-08-10T11:03:43.075Z,100.00
2023-08-10T11:06:14.237Z,100.00
2023-08-10T11:08:43.419Z,100.00
2023-08-10T11:11:13.138Z,100.00
2023-08-10T11:13:44.334Z,100.00
2023-08-10T11:16:14.559Z,100.00
2023-08-10T11:18:44.170Z,100.00
2023-08-10T11:21:13.991Z,100.00
2023-08-10T11:23:43.180Z,100.00
2023-08-10T11:26:13.343Z,100.00
2023-08-10T11:28:44.242Z,100.00
2023-08-10T11:31:16.755Z,100.00
2023-08-10T11:33:46.503Z,100.00
2023-08-10T11:36:15.908Z,100.00
2023-08-10T11:38:47.667Z,100.00
2023-08-10T11:41:16.745Z,100.00
2023-08-10T11:43:47.842Z,100.00
2023-08-10T11:46:19.951Z,100.00
2023-08-10T11:48:52.635Z,100.00
2023-08-10T11:51:21.986Z,100.00
2023-08-10T11:53:51.528Z,100.00
2023-08-10T11:56:21.384Z,100.00
2023-08-10T11:58:52.469Z,100.00
2023-08-10T12:01:22.437Z,100.00
2023-08-10T12:03:57.095Z,100.00
2023-08-10T12:06:27.350Z,100.00
2023-08-10T12:08:56.860Z,100.00
2023-08-10T12:11:27.419Z,100.00
2023-08-10T12:13:58.168Z,100.00
2023-08-10T12:16:27.449Z,100.00
2023-08-10T12:18:56.891Z,100.00
2023-08-10T12:21:26.211Z,100.00
2023-08-10T12:23:56.749Z,100.00
2023-08-10T12:26:26.473Z,100.00
2023-08-10T12:28:56.169Z,100.00
2023-08-10T12:31:27.284Z,100.00
2023-08-10T12:33:57.989Z,100.00
2023-08-10T12:36:28.417Z,100.00
2023-08-10T12:38:59.908Z,100.00
2023-08-10T12:41:29.927Z,100.00
2023-08-10T12:43:59.050Z,100.00
2023-08-10T12:46:29.719Z,100.00
2023-08-10T12:48:59.270Z,100.00
2023-08-10T12:51:29.288Z,100.00
2023-08-10T12:53:58.581Z,100.00
2023-08-10T12:56:28.074Z,100.00
2023-08-10T12:58:57.987Z,100.00
2023-08-10T13:01:27.230Z,100.00
2023-08-10T13:03:58.139Z,100.00
2023-08-10T13:06:27.486Z,100.00
2023-08-10T13:08:58.990Z,100.00
2023-08-10T13:11:28.401Z,100.00
2023-08-10T13:13:57.473Z,100.00
2023-08-10T13:16:26.771Z,100.00
2023-08-10T13:18:58.450Z,100.00
2023-08-10T13:21:28.015Z,100.00
2023-08-10T13:23:57.365Z,100.00
2023-08-10T13:26:27.032Z,100.00
2023-08-10T13:28:56.581Z,100.00
2023-08-10T13:31:25.970Z,100.00
2023-08-10T13:33:55.381Z,100.00
2023-08-10T13:36:26.381Z,99.38
2023-08-10T13:38:55.464Z,88.58
2023-08-10T13:41:24.864Z,90.61
2023-08-10T13:43:54.374Z,83.29
2023-08-10T13:46:23.954Z,83.67
2023-08-10T13:48:53.477Z,80.97
2023-08-10T13:51:22.860Z,76.17
2023-08-10T13:53:53.974Z,73.47
2023-08-10T13:56:23.360Z,80.35
2023-08-10T13:58:52.528Z,84.38
2023-08-10T14:01:23.898Z,77.69
2023-08-10T14:03:53.097Z,72.46
2023-08-10T14:06:22.314Z,64.27
2023-08-10T14:08:53.447Z,64.71
2023-08-10T14:11:24.057Z,59.96
2023-08-10T14:13:53.612Z,57.67
2023-08-10T14:16:22.965Z,65.17
2023-08-10T14:18:52.294Z,59.99
2023-08-10T14:21:23.149Z,58.93
2023-08-10T14:23:55.220Z,58.35
2023-08-10T14:26:24.555Z,52.28
2023-08-10T14:28:54.022Z,51.77
2023-08-10T14:31:23.409Z,53.89
2023-08-10T14:33:53.387Z,53.21
2023-08-10T14:36:22.664Z,53.20
2023-08-10T14:38:51.806Z,52.58
2023-08-10T14:41:23.208Z,53.52
2023-08-10T14:43:52.370Z,55.89
2023-08-10T14:46:21.535Z,58.45
2023-08-10T14:48:50.851Z,53.63
2023-08-10T14:51:19.917Z,57.39
2023-08-10T14:53:49.333Z,61.96
2023-08-10T14:56:18.586Z,57.23
2023-08-10T14:58:49.559Z,52.61
2023-08-10T15:01:18.842Z,56.57
2023-08-10T15:03:48.406Z,51.12
2023-08-10T15:06:18.320Z,53.48
2023-08-10T15:08:47.827Z,52.47
2023-08-10T15:11:17.294Z,50.00
2023-08-10T15:13:47.686Z,49.71
2023-08-10T15:16:18.673Z,53.68
2023-08-10T15:18:48.217Z,54.13
2023-08-10T15:21:18.053Z,54.18
2023-08-10T15:23:47.590Z,50.70
2023-08-10T15:26:17.302Z,52.71
2023-08-10T15:28:49.136Z,51.14
2023-08-10T15:31:22.561Z,55.80
2023-08-10T15:33:52.035Z,57.89
2023-08-10T15:36:21.175Z,56.25
2023-08-10T15:38:50.747Z,55.56
2023-08-10T15:41:19.710Z,59.69
2023-08-10T15:43:49.147Z,59.80
2023-08-10T15:46:20.265Z,66.61
2023-08-10T15:48:49.644Z,65.26
2023-08-10T15:51:19.362Z,70.64
2023-08-10T15:53:48.442Z,71.39
2023-08-10T15:56:17.843Z,68.92
2023-08-10T15:58:47.034Z,69.66
2023-08-10T16:01:16.338Z,65.68
2023-08-10T16:03:47.630Z,64.06
2023-08-10T16:06:17.147Z,56.98
2023-08-10T16:08:46.440Z,53.09
2023-08-10T16:11:15.572Z,53.42
2023-08-10T16:13:44.731Z,53.57
2023-08-10T16:16:14.324Z,52.02
2023-08-10T16:18:43.559Z,52.03
2023-08-10T16:21:15.185Z,53.57
2023-08-10T16:23:46.246Z,54.51
2023-08-10T16:26:15.329Z,55.72
2023-08-10T16:28:44.442Z,54.76
2023-08-10T16:31:13.747Z,54.96
2023-08-10T16:33:43.372Z,54.44
2023-08-10T16:36:14.587Z,59.94
2023-08-10T16:38:44.074Z,67.10
2023-08-10T16:41:13.572Z,67.04
2023-08-10T16:43:43.823Z,68.76
2023-08-10T16:46:12.850Z,69.61
2023-08-10T16:48:42.400Z,68.69
2023-08-10T16:51:11.560Z,73.56
2023-08-10T16:53:42.482Z,73.39
2023-08-10T16:56:12.433Z,73.63
2023-08-10T16:58:41.699Z,75.81
2023-08-10T17:01:12.303Z,77.76
2023-08-10T17:03:41.916Z,76.15
2023-08-10T17:06:11.163Z,78.24
2023-08-10T17:08:41.820Z,79.78
2023-08-10T17:11:11.215Z,79.56
2023-08-10T17:13:40.462Z,79.63
2023-08-10T17:16:10.254Z,82.77
2023-08-10T17:18:39.446Z,82.13
2023-08-10T17:21:08.903Z,81.98
2023-08-10T17:23:38.083Z,85.05
2023-08-10T17:26:09.231Z,84.44
2023-08-10T17:28:38.472Z,88.16
2023-08-10T17:31:07.946Z,90.73
2023-08-10T17:33:39.476Z,90.41
2023-08-10T17:36:08.918Z,90.71
2023-08-10T17:38:41.134Z,93.14
2023-08-10T17:41:11.764Z,93.31
2023-08-10T17:43:41.479Z,96.52
2023-08-10T17:46:10.908Z,95.83
2023-08-10T17:48:42.341Z,98.43
2023-08-10T17:51:12.103Z,98.80
2023-08-10T17:53:41.740Z,99.34
2023-08-10T17:56:12.439Z,99.97
2023-08-10T17:58:41.933Z,100.00
2023-08-10T18:01:11.707Z,100.00
2023-08-10T18:03:41.385Z,100.00
2023-08-10T18:06:10.545Z,100.00
2023-08-10T18:08:39.534Z,100.00
2023-08-10T18:11:08.669Z,99.15
2023-08-10T18:13:39.511Z,100.00
2023-08-10T18:16:08.811Z,99.39
2023-08-10T18:18:37.950Z,97.66
2023-08-10T18:21:07.071Z,97.71
2023-08-10T18:23:36.608Z,98.56
2023-08-10T18:26:06.964Z,98.12
2023-08-10T18:28:36.056Z,96.23
2023-08-10T18:31:10.273Z,97.46
2023-08-10T18:33:39.813Z,97.08
2023-08-10T18:36:09.834Z,99.67
2023-08-10T18:38:39.060Z,99.77
2023-08-10T18:41:11.666Z,99.80
2023-08-10T18:43:41.072Z,100.00
2023-08-10T18:46:11.654Z,100.00
2023-08-10T18:48:41.005Z,100.00
2023-08-10T18:51:10.021Z,100.00
2023-08-10T18:53:39.287Z,100.00
2023-08-10T18:56:08.789Z,100.00
2023-08-10T18:58:38.045Z,100.00
2023-08-10T19:01:07.275Z,100.00
2023-08-10T19:03:38.212Z,100.00
2023-08-10T19:06:07.564Z,100.00
2023-08-10T19:08:36.930Z,99.22
2023-08-10T19:11:06.530Z,96.63
2023-08-10T19:13:37.472Z,96.95
2023-08-10T19:16:07.777Z,97.18
2023-08-10T19:18:38.444Z,94.88
2023-08-10T19:21:08.059Z,94.86
2023-08-10T19:23:37.257Z,90.45
2023-08-10T19:26:06.596Z,89.70
2023-08-10T19:28:35.897Z,92.35
2023-08-10T19:31:07.584Z,93.77
2023-08-10T19:33:39.362Z,94.87
2023-08-10T19:36:08.618Z,91.81
2023-08-10T19:38:38.241Z,93.43
2023-08-10T19:41:08.078Z,87.29
2023-08-10T19:43:37.510Z,86.87
2023-08-10T19:46:07.295Z,84.09
2023-08-10T19:48:36.550Z,84.94
2023-08-10T19:51:08.257Z,84.63
2023-08-10T19:53:37.806Z,83.50
2023-08-10T19:56:07.880Z,84.10
2023-08-10T19:58:37.081Z,89.51
2023-08-10T20:01:06.838Z,92.23
2023-08-10T20:03:36.970Z,88.43
2023-08-10T20:06:07.966Z,83.52
2023-08-10T20:08:37.316Z,85.01
2023-08-10T20:11:06.722Z,86.37
2023-08-10T20:13:35.859Z,87.79
2023-08-10T20:16:06.608Z,80.13
2023-08-10T20:18:36.109Z,83.94
2023-08-10T20:21:06.617Z,80.63
2023-08-10T20:23:37.446Z,80.53
2023-08-10T20:26:06.653Z,83.02
2023-08-10T20:28:35.924Z,85.50
2023-08-10T20:31:06.745Z,89.12
2023-08-10T20:33:36.157Z,87.53
2023-08-10T20:36:06.227Z,89.12
2023-08-10T20:38:37.424Z,90.10
2023-08-10T20:41:07.356Z,91.54
2023-08-10T20:43:36.408Z,93.07
2023-08-10T20:46:20.659Z,94.75
2023-08-10T20:48:49.921Z,96.13
2023-08-10T20:51:19.263Z,96.20
2023-08-10T20:53:52.517Z,96.02
2023-08-10T20:56:22.376Z,96.31
2023-08-10T20:58:52.497Z,96.95
2023-08-10T21:01:22.233Z,97.39
2023-08-10T21:03:55.261Z,98.26
2023-08-10T21:06:25.087Z,99.57
2023-08-10T21:08:57.619Z,100.00
2023-08-10T21:11:26.761Z,99.80
2023-08-10T21:13:55.884Z,98.59
2023-08-10T21:16:25.060Z,99.41
2023-08-10T21:18:54.320Z,98.26
2023-08-10T21:21:23.600Z,97.49
2023-08-10T21:23:53.365Z,94.36
2023-08-10T21:26:24.564Z,100.00
2023-08-10T21:28:54.044Z,100.00
2023-08-10T21:31:23.735Z,100.00
2023-08-10T21:33:53.141Z,100.00
2023-08-10T21:36:22.233Z,100.00
2023-08-10T21:38:51.651Z,100.00
2023-08-10T21:41:20.754Z,100.00
2023-08-10T21:43:51.809Z,100.00
2023-08-10T21:46:21.139Z,100.00
2023-08-10T21:48:50.568Z,100.00
2023-08-10T21:51:20.002Z,100.00
2023-08-10T21:53:49.495Z,100.00
2023-08-10T21:56:18.799Z,100.00
2023-08-10T21:58:48.228Z,100.00
2023-08-10T22:01:19.047Z,100.00
2023-08-10T22:03:48.215Z,100.00
2023-08-10T22:06:17.294Z,100.00
2023-08-10T22:08:46.897Z,100.00
2023-08-10T22:11:16.127Z,100.00
2023-08-10T22:13:47.592Z,100.00
2023-08-10T22:16:18.288Z,100.00
2023-08-10T22:18:47.365Z,100.00
2023-08-10T22:21:18.014Z,100.00
2023-08-10T22:23:47.220Z,100.00
2023-08-10T22:26:16.882Z,100.00
2023-08-10T22:28:46.327Z,100.00
2023-08-10T22:31:15.677Z,100.00
2023-08-10T22:33:46.790Z,100.00
2023-08-10T22:36:18.326Z,100.00
2023-08-10T22:38:47.570Z,100.00
2023-08-10T22:41:16.757Z,100.00
2023-08-10T22:43:46.414Z,100.00
2023-08-10T22:46:15.885Z,100.00
2023-08-10T22:48:46.994Z,100.00
2023-08-10T22:51:16.195Z,100.00
2023-08-10T22:53:45.498Z,100.00
2023-08-10T22:56:14.754Z,100.00
2023-08-10T22:58:43.893Z,100.00
2023-08-10T23:01:13.323Z,100.00
2023-08-10T23:03:44.362Z,100.00
2023-08-10T23:06:15.423Z,100.00
2023-08-10T23:08:44.637Z,100.00
2023-08-10T23:11:14.140Z,100.00
2023-08-10T23:13:43.533Z,100.00
2023-08-10T23:16:15.385Z,100.00
2023-08-10T23:18:44.470Z,100.00
2023-08-10T23:21:15.445Z,100.00
2023-08-10T23:23:45.722Z,100.00
2023-08-10T23:26:15.941Z,100.00
2023-08-10T23:28:45.228Z,100.00
2023-08-10T23:31:14.982Z,100.00
2023-08-10T23:33:44.308Z,100.00
2023-08-10T23:36:16.133Z,100.00
2023-08-10T23:38:45.246Z,100.00
2023-08-10T23:41:14.430Z,100.00
2023-08-10T23:43:43.621Z,100.00
2023-08-10T23:46:12.845Z,100.00
2023-08-10T23:48:42.449Z,100.00
2023-08-10T23:51:12.049Z,100.00
2023-08-10T23:53:43.186Z,100.00
2023-08-10T23:56:12.487Z,100.00
2023-08-10T23:58:42.146Z,100.00
